createdAt,value
2023-04-11T00:00:56.426Z,92703.00
2023-04-11T00:01:56.579Z,92701.00
2023-04-11T00:02:56.717Z,92699.00
2023-04-11T00:03:56.614Z,92697.00
2023-04-11T00:04:56.564Z,92693.00
2023-04-11T00:05:56.566Z,92685.00
2023-04-11T00:06:56.600Z,92684.00
2023-04-11T00:07:56.631Z,92685.00
2023-04-11T00:08:57.046Z,92684.00
2023-04-11T00:09:56.663Z,92687.00
2023-04-11T00:10:56.695Z,92685.00
2023-04-11T00:11:56.715Z,92684.00
2023-04-11T00:12:56.977Z,92682.00
2023-04-11T00:13:56.769Z,92680.00
2023-04-11T00:14:56.785Z,92678.00
2023-04-11T00:15:56.881Z,92678.00
2023-04-11T00:16:56.910Z,92678.00
2023-04-11T00:17:56.900Z,92680.00
2023-04-11T00:18:57.096Z,92678.00
2023-04-11T00:19:56.931Z,92674.00
2023-04-11T00:20:56.966Z,92670.00
2023-04-11T00:21:56.988Z,92664.00
2023-04-11T00:22:57.014Z,92662.00
2023-04-11T00:23:57.088Z,92660.00
2023-04-11T00:24:57.076Z,92660.00
2023-04-11T00:25:57.103Z,92658.00
2023-04-11T00:26:57.149Z,92652.00
2023-04-11T00:27:57.166Z,92654.00
2023-04-11T00:28:57.265Z,92654.00
2023-04-11T00:29:57.222Z,92652.00
2023-04-11T00:30:57.243Z,92654.00
2023-04-11T00:31:57.303Z,92654.00
2023-04-11T00:32:57.330Z,92656.00
2023-04-11T00:33:57.320Z,92654.00
2023-04-11T00:34:57.356Z,92652.00
2023-04-11T00:35:57.443Z,92648.00
2023-04-11T00:36:57.482Z,92644.00
2023-04-11T00:37:57.434Z,92642.00
2023-04-11T00:38:57.659Z,92640.00
2023-04-11T00:39:57.486Z,92642.00
2023-04-11T00:40:57.534Z,92642.00
2023-04-11T00:41:57.576Z,92638.00
2023-04-11T00:42:57.624Z,92644.00
2023-04-11T00:43:57.744Z,92644.00
2023-04-11T00:44:57.657Z,92644.00
2023-04-11T00:45:57.687Z,92646.00
2023-04-11T00:46:57.676Z,92644.00
2023-04-11T00:47:57.734Z,92642.00
2023-04-11T00:48:58.047Z,92642.00
2023-04-11T00:49:57.754Z,92638.00
2023-04-11T00:50:57.774Z,92638.00
2023-04-11T00:51:57.796Z,92638.00
2023-04-11T00:52:57.814Z,92638.00
2023-04-11T00:53:57.853Z,92637.00
2023-04-11T00:54:57.874Z,92635.00
2023-04-11T00:55:57.902Z,92631.00
2023-04-11T00:56:57.930Z,92627.00
2023-04-11T00:57:57.951Z,92625.00
2023-04-11T00:58:57.978Z,92627.00
2023-04-11T00:59:58.001Z,92625.00
2023-04-11T01:00:58.036Z,92621.00
2023-04-11T01:01:58.191Z,92623.00
2023-04-11T01:02:58.186Z,92619.00
2023-04-11T01:03:58.166Z,92617.00
2023-04-11T01:04:58.133Z,92613.00
2023-04-11T01:05:58.151Z,92609.00
2023-04-11T01:06:58.177Z,92607.00
2023-04-11T01:07:58.217Z,92609.00
2023-04-11T01:08:58.406Z,92617.00
2023-04-11T01:09:58.272Z,92615.00
2023-04-11T01:10:58.298Z,92611.00
2023-04-11T01:11:58.333Z,92613.00
2023-04-11T01:12:58.360Z,92611.00
2023-04-11T01:13:58.389Z,92611.00
2023-04-11T01:14:58.441Z,92615.00
2023-04-11T01:15:58.446Z,92617.00
2023-04-11T01:16:58.552Z,92625.00
2023-04-11T01:17:58.579Z,92625.00
2023-04-11T01:18:58.531Z,92623.00
2023-04-11T01:19:58.556Z,92621.00
2023-04-11T01:20:58.604Z,92617.00
2023-04-11T01:21:58.621Z,92613.00
2023-04-11T01:22:58.639Z,92609.00
2023-04-11T01:23:58.674Z,92607.00
2023-04-11T01:24:58.706Z,92607.00
2023-04-11T01:25:58.736Z,92607.00
2023-04-11T01:26:58.774Z,92605.00
2023-04-11T01:27:58.806Z,92605.00
2023-04-11T01:28:58.833Z,92607.00
2023-04-11T01:29:58.852Z,92615.00
2023-04-11T01:30:58.891Z,92617.00
2023-04-11T01:31:58.910Z,92617.00
2023-04-11T01:32:58.972Z,92617.00
2023-04-11T01:33:58.865Z,92615.00
2023-04-11T01:34:58.839Z,92613.00
2023-04-11T01:35:58.856Z,92615.00
2023-04-11T01:36:58.809Z,92613.00
2023-04-11T01:37:58.802Z,92619.00
2023-04-11T01:38:58.771Z,92619.00
2023-04-11T01:39:58.764Z,92623.00
2023-04-11T01:40:58.774Z,92619.00
2023-04-11T01:41:58.763Z,92617.00
2023-04-11T01:42:58.745Z,92615.00
2023-04-11T01:43:58.723Z,92613.00
2023-04-11T01:44:58.704Z,92613.00
2023-04-11T01:45:58.668Z,92617.00
2023-04-11T01:46:58.680Z,92627.00
2023-04-11T01:47:58.746Z,92635.00
2023-04-11T01:48:58.862Z,92637.00
2023-04-11T01:49:58.646Z,92635.00
2023-04-11T01:50:58.611Z,92633.00
2023-04-11T01:51:58.593Z,92631.00
2023-04-11T01:52:58.585Z,92627.00
2023-04-11T01:53:58.554Z,92623.00
2023-04-11T01:54:58.537Z,92621.00
2023-04-11T01:55:58.498Z,92621.00
2023-04-11T01:56:58.485Z,92627.00
2023-04-11T01:57:58.465Z,92629.00
2023-04-11T01:58:58.431Z,92627.00
2023-04-11T01:59:58.414Z,92629.00
2023-04-11T02:00:58.412Z,92619.00
2023-04-11T02:01:58.482Z,92611.00
2023-04-11T02:02:58.495Z,92605.00
2023-04-11T02:03:58.469Z,92605.00
2023-04-11T02:04:58.324Z,92603.00
2023-04-11T02:05:58.300Z,92603.00
2023-04-11T02:06:58.279Z,92603.00
2023-04-11T02:07:58.257Z,92595.00
2023-04-11T02:08:58.247Z,92593.00
2023-04-11T02:09:58.237Z,92595.00
2023-04-11T02:10:58.191Z,92595.00
2023-04-11T02:11:58.164Z,92595.00
2023-04-11T02:12:58.154Z,92593.00
2023-04-11T02:13:58.118Z,92591.00
2023-04-11T02:14:58.090Z,92580.00
2023-04-11T02:15:58.100Z,92566.00
2023-04-11T02:16:58.037Z,92558.00
2023-04-11T02:17:58.055Z,92554.00
2023-04-11T02:18:58.241Z,92552.00
2023-04-11T02:19:58.059Z,92558.00
2023-04-11T02:20:57.956Z,92556.00
2023-04-11T02:21:57.925Z,92558.00
2023-04-11T02:22:57.903Z,92562.00
2023-04-11T02:23:58.775Z,92564.00
2023-04-11T02:24:57.864Z,92566.00
2023-04-11T02:25:57.848Z,92576.00
2023-04-11T02:26:57.815Z,92580.00
2023-04-11T02:27:57.850Z,92576.00
2023-04-11T02:28:57.892Z,92578.00
2023-04-11T02:29:57.761Z,92576.00
2023-04-11T02:30:57.807Z,92576.00
2023-04-11T02:31:57.748Z,92576.00
2023-04-11T02:32:57.703Z,92576.00
2023-04-11T02:33:57.656Z,92580.00
2023-04-11T02:34:57.633Z,92580.00
2023-04-11T02:35:57.614Z,92580.00
2023-04-11T02:36:57.589Z,92576.00
2023-04-11T02:37:57.560Z,92576.00
2023-04-11T02:38:57.644Z,92566.00
2023-04-11T02:39:57.545Z,92562.00
2023-04-11T02:40:57.485Z,92564.00
2023-04-11T02:41:57.532Z,92564.00
2023-04-11T02:42:57.444Z,92562.00
2023-04-11T02:43:57.414Z,92562.00
2023-04-11T02:44:57.398Z,92562.00
2023-04-11T02:46:09.503Z,92562.00
2023-04-11T02:46:58.349Z,92564.00
2023-04-11T02:47:57.309Z,92562.00
2023-04-11T02:48:57.515Z,92562.00
2023-04-11T02:49:57.215Z,92566.00
2023-04-11T02:50:57.181Z,92568.00
2023-04-11T02:51:57.161Z,92564.00
2023-04-11T02:52:57.138Z,92560.00
2023-04-11T02:53:57.106Z,92562.00
2023-04-11T02:54:57.072Z,92564.00
2023-04-11T02:55:57.082Z,92566.00
2023-04-11T02:56:57.009Z,92562.00
2023-04-11T02:57:56.968Z,92556.00
2023-04-11T02:58:57.186Z,92552.00
2023-04-11T02:59:56.899Z,92554.00
2023-04-11T03:00:56.863Z,92560.00
2023-04-11T03:01:56.880Z,92562.00
2023-04-11T03:02:56.881Z,92564.00
2023-04-11T03:03:56.817Z,92564.00
2023-04-11T03:04:56.722Z,92566.00
2023-04-11T03:05:56.684Z,92566.00
2023-04-11T03:06:56.649Z,92568.00
2023-04-11T03:07:56.621Z,92568.00
2023-04-11T03:08:56.985Z,92568.00
2023-04-11T03:09:56.534Z,92564.00
2023-04-11T03:10:56.492Z,92562.00
2023-04-11T03:11:56.448Z,92556.00
2023-04-11T03:12:56.395Z,92554.00
2023-04-11T03:13:56.379Z,92554.00
2023-04-11T03:14:56.339Z,92554.00
2023-04-11T03:15:56.326Z,92556.00
2023-04-11T03:16:56.276Z,92550.00
2023-04-11T03:17:56.274Z,92543.00
2023-04-11T03:18:56.476Z,92541.00
2023-04-11T03:19:56.165Z,92539.00
2023-04-11T03:20:56.221Z,92537.00
2023-04-11T03:21:56.102Z,92531.00
2023-04-11T03:22:56.073Z,92521.00
2023-04-11T03:23:56.044Z,92515.00
2023-04-11T03:24:56.004Z,92511.00
2023-04-11T03:25:55.976Z,92511.00
2023-04-11T03:26:55.945Z,92509.00
2023-04-11T03:27:55.916Z,92505.00
2023-04-11T03:28:55.990Z,92509.00
2023-04-11T03:29:55.858Z,92509.00
2023-04-11T03:30:55.850Z,92507.00
2023-04-11T03:31:55.808Z,92501.00
2023-04-11T03:32:55.833Z,92498.00
2023-04-11T03:33:55.751Z,92494.00
2023-04-11T03:34:55.729Z,92494.00
2023-04-11T03:35:55.744Z,92494.00
2023-04-11T03:36:55.650Z,92494.00
2023-04-11T03:37:55.624Z,92496.00
2023-04-11T03:38:55.840Z,92498.00
2023-04-11T03:39:55.562Z,92507.00
2023-04-11T03:40:55.533Z,92511.00
2023-04-11T03:41:55.499Z,92511.00
2023-04-11T03:42:55.478Z,92507.00
2023-04-11T03:43:55.447Z,92507.00
2023-04-11T03:44:55.404Z,92505.00
2023-04-11T03:45:55.371Z,92505.00
2023-04-11T03:46:55.477Z,92503.00
2023-04-11T03:47:55.348Z,92505.00
2023-04-11T03:48:55.509Z,92507.00
2023-04-11T03:49:55.240Z,92511.00
2023-04-11T03:50:55.202Z,92515.00
2023-04-11T03:51:55.179Z,92515.00
2023-04-11T03:52:55.139Z,92517.00
2023-04-11T03:53:55.121Z,92513.00
2023-04-11T03:54:55.080Z,92509.00
2023-04-11T03:55:55.053Z,92499.00
2023-04-11T03:56:55.036Z,92496.00
2023-04-11T03:57:54.993Z,92496.00
2023-04-11T03:58:55.181Z,92492.00
2023-04-11T03:59:54.964Z,92494.00
2023-04-11T04:00:54.943Z,92490.00
2023-04-11T04:01:55.025Z,92492.00
2023-04-11T04:02:55.065Z,92490.00
2023-04-11T04:03:55.299Z,92486.00
2023-04-11T04:04:55.016Z,92482.00
2023-04-11T04:05:54.849Z,92478.00
2023-04-11T04:06:54.830Z,92476.00
2023-04-11T04:07:55.910Z,92472.00
2023-04-11T04:08:54.792Z,92468.00
2023-04-11T04:09:54.766Z,92468.00
2023-04-11T04:10:54.756Z,92472.00
2023-04-11T04:11:54.727Z,92470.00
2023-04-11T04:12:54.712Z,92464.00
2023-04-11T04:13:54.932Z,92462.00
2023-04-11T04:14:54.668Z,92458.00
2023-04-11T04:15:54.675Z,92460.00
2023-04-11T04:16:54.727Z,92454.00
2023-04-11T04:17:54.763Z,92445.00
2023-04-11T04:18:54.600Z,92439.00
2023-04-11T04:19:54.567Z,92437.00
2023-04-11T04:20:54.563Z,92435.00
2023-04-11T04:21:54.529Z,92433.00
2023-04-11T04:22:54.492Z,92433.00
2023-04-11T04:23:54.697Z,92437.00
2023-04-11T04:24:54.448Z,92433.00
2023-04-11T04:25:54.424Z,92435.00
2023-04-11T04:26:54.401Z,92439.00
2023-04-11T04:27:54.370Z,92439.00
2023-04-11T04:28:54.361Z,92437.00
2023-04-11T04:29:56.361Z,92443.00
2023-04-11T04:30:55.310Z,92447.00
2023-04-11T04:31:54.306Z,92443.00
2023-04-11T04:32:54.281Z,92437.00
2023-04-11T04:33:54.352Z,92431.00
2023-04-11T04:34:54.199Z,92427.00
2023-04-11T04:35:54.191Z,92427.00
2023-04-11T04:36:54.124Z,92421.00
2023-04-11T04:37:54.209Z,92417.00
2023-04-11T04:38:54.073Z,92415.00
2023-04-11T04:39:54.048Z,92411.00
2023-04-11T04:40:54.001Z,92413.00
2023-04-11T04:41:53.977Z,92419.00
2023-04-11T04:42:53.930Z,92419.00
2023-04-11T04:43:54.064Z,92421.00
2023-04-11T04:44:53.861Z,92423.00
2023-04-11T04:45:53.907Z,92419.00
2023-04-11T04:46:53.792Z,92419.00
2023-04-11T04:47:53.801Z,92423.00
2023-04-11T04:48:53.723Z,92427.00
2023-04-11T04:49:53.690Z,92433.00
2023-04-11T04:50:53.686Z,92437.00
2023-04-11T04:51:53.633Z,92441.00
2023-04-11T04:52:53.594Z,92441.00
2023-04-11T04:53:53.737Z,92441.00
2023-04-11T04:54:53.521Z,92441.00
2023-04-11T04:55:53.491Z,92445.00
2023-04-11T04:56:53.468Z,92445.00
2023-04-11T04:57:53.450Z,92447.00
2023-04-11T04:58:53.410Z,92450.00
2023-04-11T04:59:53.382Z,92456.00
2023-04-11T05:00:53.368Z,92458.00
2023-04-11T05:01:53.577Z,92458.00
2023-04-11T05:02:53.353Z,92456.00
2023-04-11T05:03:53.356Z,92452.00
2023-04-11T05:04:53.220Z,92454.00
2023-04-11T05:05:53.202Z,92452.00
2023-04-11T05:06:53.175Z,92452.00
2023-04-11T05:07:53.126Z,92448.00
2023-04-11T05:08:53.087Z,92445.00
2023-04-11T05:09:53.052Z,92443.00
2023-04-11T05:10:53.016Z,92439.00
2023-04-11T05:11:52.984Z,92431.00
2023-04-11T05:12:52.959Z,92429.00
2023-04-11T05:13:52.922Z,92429.00
2023-04-11T05:14:52.885Z,92429.00
2023-04-11T05:15:52.867Z,92429.00
2023-04-11T05:16:52.870Z,92429.00
2023-04-11T05:17:52.847Z,92427.00
2023-04-11T05:18:52.747Z,92433.00
2023-04-11T05:19:52.719Z,92433.00
2023-04-11T05:20:52.700Z,92431.00
2023-04-11T05:21:52.657Z,92433.00
2023-04-11T05:22:52.635Z,92437.00
2023-04-11T05:23:52.601Z,92441.00
2023-04-11T05:24:52.582Z,92433.00
2023-04-11T05:25:52.531Z,92433.00
2023-04-11T05:26:52.499Z,92437.00
2023-04-11T05:27:52.471Z,92433.00
2023-04-11T05:28:52.527Z,92437.00
2023-04-11T05:29:52.398Z,92435.00
2023-04-11T05:30:52.407Z,92435.00
2023-04-11T05:31:52.347Z,92433.00
2023-04-11T05:32:52.381Z,92431.00
2023-04-11T05:33:52.278Z,92429.00
2023-04-11T05:34:52.249Z,92429.00
2023-04-11T05:35:52.274Z,92427.00
2023-04-11T05:36:52.192Z,92425.00
2023-04-11T05:37:52.152Z,92421.00
2023-04-11T05:38:52.202Z,92423.00
2023-04-11T05:39:52.084Z,92421.00
2023-04-11T05:40:52.052Z,92417.00
2023-04-11T05:41:52.003Z,92419.00
2023-04-11T05:42:51.961Z,92417.00
2023-04-11T05:43:51.920Z,92419.00
2023-04-11T05:44:54.800Z,92421.00
2023-04-11T05:45:51.846Z,92417.00
2023-04-11T05:46:51.776Z,92413.00
2023-04-11T05:47:51.804Z,92413.00
2023-04-11T05:48:51.706Z,92421.00
2023-04-11T05:49:51.665Z,92421.00
2023-04-11T05:50:51.636Z,92423.00
2023-04-11T05:51:51.593Z,92423.00
2023-04-11T05:52:51.533Z,92423.00
2023-04-11T05:53:51.488Z,92423.00
2023-04-11T05:54:51.446Z,92423.00
2023-04-11T05:55:51.388Z,92425.00
2023-04-11T05:56:51.345Z,92429.00
2023-04-11T05:57:51.297Z,92427.00
2023-04-11T05:58:51.257Z,92423.00
2023-04-11T05:59:51.221Z,92429.00
2023-04-11T06:00:51.192Z,92431.00
2023-04-11T06:01:51.182Z,92427.00
2023-04-11T06:02:51.221Z,92427.00
2023-04-11T06:03:51.910Z,92425.00
2023-04-11T06:04:51.094Z,92431.00
2023-04-11T06:05:51.012Z,92431.00
2023-04-11T06:06:50.967Z,92435.00
2023-04-11T06:07:50.935Z,92433.00
2023-04-11T06:08:50.901Z,92433.00
2023-04-11T06:09:50.867Z,92429.00
2023-04-11T06:10:50.823Z,92433.00
2023-04-11T06:11:50.778Z,92433.00
2023-04-11T06:12:50.738Z,92435.00
2023-04-11T06:13:50.695Z,92441.00
2023-04-11T06:14:50.644Z,92443.00
2023-04-11T06:15:50.629Z,92447.00
2023-04-11T06:16:50.580Z,92458.00
2023-04-11T06:17:50.615Z,92462.00
2023-04-11T06:18:50.501Z,92464.00
2023-04-11T06:19:50.465Z,92464.00
2023-04-11T06:20:50.427Z,92470.00
2023-04-11T06:21:50.389Z,92474.00
2023-04-11T06:22:50.353Z,92476.00
2023-04-11T06:23:50.705Z,92474.00
2023-04-11T06:24:50.266Z,92474.00
2023-04-11T06:25:50.239Z,92470.00
2023-04-11T06:26:50.197Z,92468.00
2023-04-11T06:27:50.170Z,92464.00
2023-04-11T06:28:50.792Z,92458.00
2023-04-11T06:29:50.106Z,92454.00
2023-04-11T06:30:50.117Z,92454.00
2023-04-11T06:31:50.203Z,92454.00
2023-04-11T06:32:50.187Z,92458.00
2023-04-11T06:33:50.018Z,92458.00
2023-04-11T06:34:49.981Z,92458.00
2023-04-11T06:35:50.845Z,92460.00
2023-04-11T06:36:49.957Z,92460.00
2023-04-11T06:37:49.923Z,92460.00
2023-04-11T06:38:49.891Z,92454.00
2023-04-11T06:39:49.868Z,92456.00
2023-04-11T06:40:49.857Z,92456.00
2023-04-11T06:41:49.868Z,92454.00
2023-04-11T06:42:49.879Z,92448.00
2023-04-11T06:43:49.864Z,92445.00
2023-04-11T06:44:50.344Z,92445.00
2023-04-11T06:45:49.884Z,92441.00
2023-04-11T06:46:49.876Z,92441.00
2023-04-11T06:47:49.827Z,92441.00
2023-04-11T06:48:49.775Z,92443.00
2023-04-11T06:49:49.750Z,92441.00
2023-04-11T06:50:49.722Z,92441.00
2023-04-11T06:51:49.698Z,92439.00
2023-04-11T06:52:49.684Z,92441.00
2023-04-11T06:53:49.689Z,92441.00
2023-04-11T06:54:49.736Z,92441.00
2023-04-11T06:55:49.744Z,92433.00
2023-04-11T06:56:49.725Z,92435.00
2023-04-11T06:57:49.796Z,92435.00
2023-04-11T06:58:49.745Z,92433.00
2023-04-11T06:59:49.767Z,92429.00
2023-04-11T07:00:49.790Z,92423.00
2023-04-11T07:01:49.981Z,92423.00
2023-04-11T07:02:50.175Z,92425.00
2023-04-11T07:03:50.999Z,92427.00
2023-04-11T07:04:49.913Z,92427.00
2023-04-11T07:05:50.307Z,92429.00
2023-04-11T07:06:49.783Z,92425.00
2023-04-11T07:07:49.774Z,92425.00
2023-04-11T07:08:49.737Z,92425.00
2023-04-11T07:09:49.723Z,92427.00
2023-04-11T07:10:49.735Z,92429.00
2023-04-11T07:11:49.629Z,92427.00
2023-04-11T07:12:49.602Z,92427.00
2023-04-11T07:13:49.566Z,92425.00
2023-04-11T07:14:49.538Z,92419.00
2023-04-11T07:15:49.572Z,92425.00
2023-04-11T07:16:49.495Z,92419.00
2023-04-11T07:17:51.434Z,92417.00
2023-04-11T07:18:49.447Z,92415.00
2023-04-11T07:19:49.397Z,92415.00
2023-04-11T07:20:49.360Z,92415.00
2023-04-11T07:21:49.338Z,92419.00
2023-04-11T07:22:49.292Z,92419.00
2023-04-11T07:23:49.250Z,92417.00
2023-04-11T07:24:49.222Z,92419.00
2023-04-11T07:25:49.191Z,92421.00
2023-04-11T07:26:49.158Z,92423.00
2023-04-11T07:27:49.130Z,92427.00
2023-04-11T07:28:49.085Z,92427.00
2023-04-11T07:29:49.065Z,92427.00
2023-04-11T07:30:49.089Z,92423.00
2023-04-11T07:31:49.022Z,92423.00
2023-04-11T07:32:49.029Z,92425.00
2023-04-11T07:33:48.919Z,92423.00
2023-04-11T07:34:48.893Z,92425.00
2023-04-11T07:35:48.908Z,92425.00
2023-04-11T07:36:48.812Z,92425.00
2023-04-11T07:37:48.783Z,92423.00
2023-04-11T07:38:48.747Z,92425.00
2023-04-11T07:39:48.708Z,92431.00
2023-04-11T07:40:48.681Z,92431.00
2023-04-11T07:41:48.647Z,92429.00
2023-04-11T07:42:48.602Z,92425.00
2023-04-11T07:43:48.578Z,92419.00
2023-04-11T07:44:48.536Z,92419.00
2023-04-11T07:45:48.547Z,92419.00
2023-04-11T07:46:48.472Z,92421.00
2023-04-11T07:47:48.465Z,92425.00
2023-04-11T07:48:48.399Z,92419.00
2023-04-11T07:49:48.378Z,92421.00
2023-04-11T07:50:48.320Z,92425.00
2023-04-11T07:51:48.276Z,92427.00
2023-04-11T07:52:48.241Z,92423.00
2023-04-11T07:53:48.207Z,92425.00
2023-04-11T07:54:48.166Z,92427.00
2023-04-11T07:55:48.131Z,92423.00
2023-04-11T07:56:48.092Z,92429.00
2023-04-11T07:57:48.071Z,92431.00
2023-04-11T07:58:48.029Z,92433.00
2023-04-11T07:59:48.020Z,92441.00
2023-04-11T08:00:47.965Z,92437.00
2023-04-11T08:01:48.785Z,92441.00
2023-04-11T08:02:47.979Z,92443.00
2023-04-11T08:03:48.011Z,92445.00
2023-04-11T08:04:47.905Z,92447.00
2023-04-11T08:05:47.788Z,92448.00
2023-04-11T08:06:47.754Z,92450.00
2023-04-11T08:07:47.712Z,92450.00
2023-04-11T08:08:47.670Z,92447.00
2023-04-11T08:09:47.625Z,92450.00
2023-04-11T08:10:47.951Z,92450.00
2023-04-11T08:11:47.562Z,92450.00
2023-04-11T08:12:47.532Z,92448.00
2023-04-11T08:13:47.498Z,92448.00
2023-04-11T08:14:47.473Z,92447.00
2023-04-11T08:15:47.453Z,92447.00
2023-04-11T08:16:47.432Z,92448.00
2023-04-11T08:17:47.410Z,92450.00
2023-04-11T08:18:47.319Z,92452.00
2023-04-11T08:19:47.282Z,92450.00
2023-04-11T08:20:47.826Z,92448.00
2023-04-11T08:21:47.261Z,92448.00
2023-04-11T08:22:47.213Z,92450.00
2023-04-11T08:23:47.403Z,92447.00
2023-04-11T08:24:47.103Z,92454.00
2023-04-11T08:25:47.067Z,92447.00
2023-04-11T08:26:47.031Z,92448.00
2023-04-11T08:27:47.023Z,92450.00
2023-04-11T08:28:46.951Z,92448.00
2023-04-11T08:29:46.908Z,92452.00
2023-04-11T08:30:46.899Z,92452.00
2023-04-11T08:31:46.852Z,92458.00
2023-04-11T08:32:46.849Z,92464.00
2023-04-11T08:33:46.795Z,92466.00
2023-04-11T08:34:46.749Z,92474.00
2023-04-11T08:35:46.727Z,92474.00
2023-04-11T08:36:46.686Z,92476.00
2023-04-11T08:37:46.682Z,92476.00
2023-04-11T08:38:46.610Z,92476.00
2023-04-11T08:39:46.562Z,92480.00
2023-04-11T08:40:46.551Z,92480.00
2023-04-11T08:41:46.503Z,92486.00
2023-04-11T08:42:47.361Z,92490.00
2023-04-11T08:43:46.407Z,92490.00
2023-04-11T08:44:46.356Z,92490.00
2023-04-11T08:45:46.384Z,92486.00
2023-04-11T08:46:46.289Z,92488.00
2023-04-11T08:47:46.295Z,92492.00
2023-04-11T08:48:46.225Z,92494.00
2023-04-11T08:49:46.141Z,92494.00
2023-04-11T08:50:46.146Z,92499.00
2023-04-11T08:51:46.126Z,92501.00
2023-04-11T08:52:46.142Z,92503.00
2023-04-11T08:53:46.169Z,92507.00
2023-04-11T08:54:46.177Z,92509.00
2023-04-11T08:55:46.217Z,92507.00
2023-04-11T08:56:46.238Z,92507.00
2023-04-11T08:57:46.233Z,92503.00
2023-04-11T08:58:46.259Z,92503.00
2023-04-11T08:59:46.584Z,92499.00
2023-04-11T09:00:46.295Z,92499.00
2023-04-11T09:01:46.425Z,92503.00
2023-04-11T09:02:46.432Z,92507.00
2023-04-11T09:03:46.537Z,92505.00
2023-04-11T09:04:46.404Z,92509.00
2023-04-11T09:05:46.372Z,92511.00
2023-04-11T09:06:46.397Z,92513.00
2023-04-11T09:07:46.400Z,92513.00
2023-04-11T09:08:46.422Z,92515.00
2023-04-11T09:09:47.264Z,92513.00
2023-04-11T09:10:46.485Z,92515.00
2023-04-11T09:11:46.462Z,92515.00
2023-04-11T09:12:46.471Z,92515.00
2023-04-11T09:13:46.484Z,92515.00
2023-04-11T09:14:46.541Z,92517.00
2023-04-11T09:15:46.509Z,92517.00
2023-04-11T09:16:46.526Z,92515.00
2023-04-11T09:17:46.568Z,92517.00
2023-04-11T09:18:46.811Z,92521.00
2023-04-11T09:19:48.915Z,92521.00
2023-04-11T09:20:47.494Z,92521.00
2023-04-11T09:21:46.453Z,92521.00
2023-04-11T09:22:46.408Z,92521.00
2023-04-11T09:23:46.363Z,92523.00
2023-04-11T09:24:46.321Z,92521.00
2023-04-11T09:25:46.852Z,92523.00
2023-04-11T09:26:46.767Z,92517.00
2023-04-11T09:27:46.192Z,92521.00
2023-04-11T09:28:46.169Z,92521.00
2023-04-11T09:29:46.132Z,92521.00
2023-04-11T09:30:46.229Z,92525.00
2023-04-11T09:31:47.205Z,92527.00
2023-04-11T09:32:46.138Z,92525.00
2023-04-11T09:33:46.043Z,92527.00
2023-04-11T09:34:45.992Z,92529.00
2023-04-11T09:35:45.968Z,92535.00
2023-04-11T09:36:45.930Z,92533.00
2023-04-11T09:37:45.858Z,92535.00
2023-04-11T09:38:45.830Z,92533.00
2023-04-11T09:39:45.808Z,92535.00
2023-04-11T09:40:45.831Z,92535.00
2023-04-11T09:41:45.853Z,92533.00
2023-04-11T09:42:45.877Z,92535.00
2023-04-11T09:43:45.916Z,92533.00
2023-04-11T09:44:45.938Z,92533.00
2023-04-11T09:45:54.085Z,92535.00
2023-04-11T09:46:46.953Z,92533.00
2023-04-11T09:47:45.915Z,92533.00
2023-04-11T09:48:47.114Z,92531.00
2023-04-11T09:49:45.813Z,92531.00
2023-04-11T09:50:45.777Z,92531.00
2023-04-11T09:51:45.738Z,92525.00
2023-04-11T09:52:45.681Z,92525.00
2023-04-11T09:53:45.650Z,92525.00
2023-04-11T09:54:45.636Z,92521.00
2023-04-11T09:55:45.735Z,92519.00
2023-04-11T09:56:45.696Z,92517.00
2023-04-11T09:57:45.781Z,92519.00
2023-04-11T09:58:45.752Z,92517.00
2023-04-11T09:59:45.789Z,92515.00
2023-04-11T10:00:45.823Z,92513.00
2023-04-11T10:01:45.892Z,92511.00
2023-04-11T10:02:46.044Z,92503.00
2023-04-11T10:03:45.899Z,92498.00
2023-04-11T10:04:45.921Z,92499.00
2023-04-11T10:05:45.922Z,92501.00
2023-04-11T10:06:45.957Z,92505.00
2023-04-11T10:07:46.031Z,92507.00
2023-04-11T10:08:46.025Z,92507.00
2023-04-11T10:09:46.059Z,92503.00
2023-04-11T10:10:46.079Z,92499.00
2023-04-11T10:11:46.137Z,92499.00
2023-04-11T10:12:46.097Z,92501.00
2023-04-11T10:13:46.122Z,92501.00
2023-04-11T10:14:46.126Z,92494.00
2023-04-11T10:15:46.105Z,92496.00
2023-04-11T10:16:46.174Z,92498.00
2023-04-11T10:17:46.197Z,92499.00
2023-04-11T10:18:46.159Z,92501.00
2023-04-11T10:19:46.864Z,92498.00
2023-04-11T10:20:46.874Z,92498.00
2023-04-11T10:21:46.859Z,92499.00
2023-04-11T10:22:46.136Z,92501.00
2023-04-11T10:23:46.093Z,92503.00
2023-04-11T10:24:46.134Z,92499.00
2023-04-11T10:25:46.204Z,92494.00
2023-04-11T10:26:47.217Z,92492.00
2023-04-11T10:27:46.217Z,92490.00
2023-04-11T10:28:46.241Z,92486.00
2023-04-11T10:29:46.274Z,92490.00
2023-04-11T10:30:46.293Z,92488.00
2023-04-11T10:31:46.310Z,92488.00
2023-04-11T10:32:46.322Z,92486.00
2023-04-11T10:33:46.866Z,92484.00
2023-04-11T10:34:46.346Z,92484.00
2023-04-11T10:35:46.391Z,92484.00
2023-04-11T10:36:46.389Z,92468.00
2023-04-11T10:37:46.409Z,92472.00
2023-04-11T10:38:46.430Z,92466.00
2023-04-11T10:39:46.445Z,92468.00
2023-04-11T10:40:46.452Z,92466.00
2023-04-11T10:41:46.450Z,92466.00
2023-04-11T10:42:46.455Z,92462.00
2023-04-11T10:43:46.476Z,92470.00
2023-04-11T10:44:46.437Z,92466.00
2023-04-11T10:45:46.417Z,92464.00
2023-04-11T10:46:46.419Z,92456.00
2023-04-11T10:47:46.410Z,92462.00
2023-04-11T10:48:46.404Z,92460.00
2023-04-11T10:49:47.300Z,92458.00
2023-04-11T10:50:46.406Z,92462.00
2023-04-11T10:51:46.404Z,92464.00
2023-04-11T10:52:46.426Z,92458.00
2023-04-11T10:53:46.433Z,92462.00
2023-04-11T10:54:46.433Z,92460.00
2023-04-11T10:55:46.393Z,92460.00
2023-04-11T10:56:46.352Z,92452.00
2023-04-11T10:57:46.348Z,92448.00
2023-04-11T10:58:46.348Z,92441.00
2023-04-11T10:59:46.366Z,92435.00
2023-04-11T11:00:46.386Z,92437.00
2023-04-11T11:01:52.372Z,92441.00
2023-04-11T11:02:47.444Z,92441.00
2023-04-11T11:03:46.523Z,92448.00
2023-04-11T11:04:46.256Z,92448.00
2023-04-11T11:05:46.166Z,92452.00
2023-04-11T11:06:54.540Z,92456.00
2023-04-11T11:07:47.082Z,92456.00
2023-04-11T11:08:46.043Z,92452.00
2023-04-11T11:09:45.984Z,92448.00
2023-04-11T11:10:45.934Z,92447.00
2023-04-11T11:11:45.898Z,92447.00
2023-04-11T11:12:45.865Z,92450.00
2023-04-11T11:13:45.828Z,92452.00
2023-04-11T11:14:45.801Z,92452.00
2023-04-11T11:15:45.764Z,92452.00
2023-04-11T11:16:45.739Z,92450.00
2023-04-11T11:17:45.716Z,92450.00
2023-04-11T11:18:45.635Z,92445.00
2023-04-11T11:19:45.628Z,92448.00
2023-04-11T11:20:45.564Z,92450.00
2023-04-11T11:21:45.505Z,92447.00
2023-04-11T11:22:45.483Z,92443.00
2023-04-11T11:23:45.435Z,92443.00
2023-04-11T11:24:45.392Z,92443.00
2023-04-11T11:25:45.380Z,92441.00
2023-04-11T11:26:45.387Z,92437.00
2023-04-11T11:27:45.392Z,92439.00
2023-04-11T11:28:45.365Z,92437.00
2023-04-11T11:29:45.338Z,92433.00
2023-04-11T11:30:45.293Z,92433.00
2023-04-11T11:31:45.266Z,92429.00
2023-04-11T11:32:45.317Z,92423.00
2023-04-11T11:33:45.248Z,92421.00
2023-04-11T11:34:45.197Z,92415.00
2023-04-11T11:35:45.166Z,92413.00
2023-04-11T11:36:45.208Z,92409.00
2023-04-11T11:37:45.131Z,92409.00
2023-04-11T11:38:45.080Z,92407.00
2023-04-11T11:39:45.030Z,92409.00
2023-04-11T11:40:44.981Z,92409.00
2023-04-11T11:41:44.935Z,92409.00
2023-04-11T11:42:44.926Z,92409.00
2023-04-11T11:43:44.911Z,92405.00
2023-04-11T11:44:44.876Z,92401.00